North Canton, Connecticut
Current Conditions -  °F | °C
As of 2:51 AM on Friday 24 Oct 2014 (Local Time) from KBDL Reporting Station
Overcast Overcast  
Wind Chill: 50°   Ceiling: 2500
Heat Index: 50°   Visibility: 10mi
Dew Point: 46°   Wind: 10mph
Humidity: 86%   Direction: 320°NW
Pressure: 29.72"   Gusts: NA
Location:  41.94°N, 72.91°W
Report Text: KBDL 240651Z 32009KT 10SM OVC025 10/08 A2972 RMK AO2 RAB0553E35 SLP064 P0000 T01000078
Loading
Personal Weather Stations






























Interactive Weather Map
Tropical Storm Tracking
New forecast layout! Learn more

10-Day Weather Forecast

Advertisements
Track Severe Weather on mobile